Martham, United Kingdom
Current Conditions -  °F | °C
As of 1:20 PM on Tuesday 21 Oct 2014 (Local Time) from EGSD Reporting Station
Rain Showers Rain Showers  
Wind Chill: 50°   Ceiling: Unl
Heat Index: 50°   Visibility: 6mi
Dew Point: 46°   Wind: 26mph
Humidity: 87%   Direction: 280°W
Pressure: 29.53"   Gusts: 39mph
Location:  52.7°N, 1.64°E
Report Text: EGSD 211220Z 28023G34KT 9999 VCSH SQ FEW008 SCT012 10/08 Q1000
Loading
Personal Weather Stations






























Interactive Weather Map
Tropical Storm Tracking
New forecast layout! Learn more

10-Day Weather Forecast

Advertisements
Track Severe Weather on mobile